Time,TemperatureF,DewpointF,PressureIn,WindDirection,WindDirectionDegrees,WindSpeedMPH,WindSpeedGustMPH,Humidity,HourlyPrecipIn,Conditions,Clouds,dailyrainin,SolarRadiationWatts/m^2,SoftwareType,DateUTC
2013-06-28 00:12:00,53.0,53.0,29.85,ESE,123,1.0,4.0,99,0.08,,,0.09,408.000000,,2013-06-28 04:12:00,
2013-06-28 00:22:00,53.0,53.0,29.85,East,90,0.0,4.0,99,0.13,,,0.14,408.000000,,2013-06-28 04:22:00,
2013-06-28 00:43:00,53.0,53.0,29.85,SE,126,0.0,3.0,99,0.23,,,0.25,408.000000,,2013-06-28 04:43:00,
2013-06-28 00:53:00,53.0,53.0,29.84,NE,54,1.0,5.0,99,0.21,,,0.27,408.000000,,2013-06-28 04:53:00,
2013-06-28 01:02:00,53.0,53.0,29.83,SE,127,1.0,4.0,99,0.22,,,0.31,408.000000,,2013-06-28 05:02:00,
2013-06-28 01:11:00,53.0,53.0,29.83,SE,127,1.0,4.0,99,0.22,,,0.31,408.000000,,2013-06-28 05:11:00,
2013-06-28 01:22:00,53.0,53.0,29.83,ESE,110,1.0,3.0,99,0.17,,,0.32,408.000000,,2013-06-28 05:22:00,
2013-06-28 01:33:00,53.0,53.0,29.83,ESE,110,1.0,3.0,99,0.17,,,0.32,408.000000,,2013-06-28 05:33:00,
2013-06-28 01:43:00,54.0,54.0,29.83,WSW,258,0.0,5.0,99,0.07,,,0.33,408.000000,,2013-06-28 05:43:00,
2013-06-28 01:53:00,54.0,54.0,29.83,NNE,32,0.0,4.0,99,0.09,,,0.36,408.000000,,2013-06-28 05:53:00,
2013-06-28 02:02:00,54.0,54.0,29.84,ESE,116,0.0,0.0,99,0.12,,,0.43,408.000000,,2013-06-28 06:02:00,
2013-06-28 02:22:00,54.0,54.0,29.82,East,88,0.0,4.0,99,0.20,,,0.52,408.000000,,2013-06-28 06:22:00,
2013-06-28 02:33:00,54.0,54.0,29.81,ESE,123,0.0,2.0,99,0.26,,,0.59,408.000000,,2013-06-28 06:33:00,
2013-06-28 02:43:00,54.0,54.0,29.81,ESE,123,0.0,2.0,99,0.26,,,0.59,408.000000,,2013-06-28 06:43:00,
2013-06-28 02:52:00,54.0,54.0,29.80,East,100,0.0,4.0,99,0.36,,,0.72,408.000000,,2013-06-28 06:52:00,
2013-06-28 03:01:00,54.0,54.0,29.79,WSW,254,1.0,6.0,99,0.30,,,0.74,408.000000,,2013-06-28 07:01:00,
2013-06-28 03:22:00,55.0,55.0,29.78,East,83,1.0,4.0,99,0.23,,,0.75,408.000000,,2013-06-28 07:22:00,
2013-06-28 03:33:00,54.0,54.0,29.78,ENE,71,1.0,6.0,99,0.16,,,0.76,408.000000,,2013-06-28 07:33:00,
2013-06-28 03:43:00,54.0,54.0,29.78,ENE,71,1.0,6.0,99,0.16,,,0.76,408.000000,,2013-06-28 07:43:00,
2013-06-28 03:52:00,54.0,54.0,29.78,SE,126,2.0,8.0,99,0.17,,,0.89,408.000000,,2013-06-28 07:52:00,
2013-06-28 04:02:00,54.0,54.0,29.78,SE,126,2.0,8.0,99,0.17,,,0.89,408.000000,,2013-06-28 08:02:00,
2013-06-28 04:11:00,54.0,54.0,29.77,ESE,105,1.0,5.0,99,0.20,,,0.94,408.000000,,2013-06-28 08:11:00,
2013-06-28 04:22:00,54.0,54.0,29.77,SSW,192,1.0,4.0,99,0.52,,,1.27,408.000000,,2013-06-28 08:22:00,
2013-06-28 04:33:00,54.0,54.0,29.77,SSW,192,1.0,4.0,99,0.52,,,1.27,408.000000,,2013-06-28 08:33:00,
2013-06-28 04:43:00,55.0,55.0,29.76,ESE,119,11.0,23.0,99,1.00,,,1.76,0.000000,,2013-06-28 08:43:00,
2013-06-28 04:52:00,55.0,55.0,29.76,ESE,119,9.0,18.0,99,0.89,,,1.78,0.000000,,2013-06-28 08:52:00,
2013-06-28 05:02:00,55.0,55.0,29.76,ESE,119,9.0,18.0,99,0.89,,,1.78,0.000000,,2013-06-28 09:02:00,
2013-06-28 05:11:00,54.0,54.0,29.76,ESE,111,12.0,18.0,99,0.84,,,1.78,0.000000,,2013-06-28 09:11:00,
2013-06-28 05:33:00,54.0,54.0,29.76,SE,126,10.0,17.0,99,0.52,,,1.79,0.000000,,2013-06-28 09:33:00,
2013-06-28 05:42:00,53.0,53.0,29.76,East,100,9.0,15.0,99,0.03,,,1.79,0.000000,,2013-06-28 09:42:00,
2013-06-28 05:52:00,53.0,53.0,29.76,East,100,9.0,15.0,99,0.03,,,1.79,0.000000,,2013-06-28 09:52:00,
2013-06-28 06:02:00,53.0,53.0,29.76,ESE,119,7.0,16.0,99,0.01,,,1.79,7.000000,,2013-06-28 10:02:00,
2013-06-28 06:12:00,53.0,53.0,29.75,ESE,110,8.0,13.0,99,0.01,,,1.79,9.000000,,2013-06-28 10:12:00,
2013-06-28 06:33:00,53.0,53.0,29.76,ESE,113,7.0,13.0,99,0.00,,,1.79,12.000000,,2013-06-28 10:33:00,
2013-06-28 06:42:00,53.0,53.0,29.74,SE,143,9.0,16.0,99,0.00,,,1.79,16.000000,,2013-06-28 10:42:00,
2013-06-28 06:52:00,53.0,53.0,29.74,SE,143,9.0,16.0,99,0.00,,,1.79,16.000000,,2013-06-28 10:52:00,
2013-06-28 07:02:00,54.0,54.0,29.74,ESE,110,7.0,17.0,99,0.00,,,1.79,19.000000,,2013-06-28 11:02:00,
2013-06-28 07:34:00,54.0,54.0,29.72,SE,129,12.0,23.0,99,0.01,,,1.80,39.000000,,2013-06-28 11:34:00,
2013-06-28 07:43:00,53.0,53.0,29.73,SE,146,13.0,24.0,99,0.01,,,1.80,40.000000,,2013-06-28 11:43:00,
2013-06-28 08:02:00,53.0,53.0,29.73,SE,136,16.0,27.0,99,0.01,,,1.80,63.000000,,2013-06-28 12:02:00,
2013-06-28 08:12:00,53.0,53.0,29.72,SE,127,16.0,27.0,99,0.01,,,1.80,54.000000,,2013-06-28 12:12:00,
2013-06-28 08:34:00,53.0,53.0,29.71,SSE,147,13.0,24.0,99,0.00,,,1.80,46.000000,,2013-06-28 12:34:00,
2013-06-28 08:43:00,53.0,53.0,29.71,SE,136,17.0,29.0,99,0.00,,,1.80,53.000000,,2013-06-28 12:43:00,
2013-06-28 08:52:00,53.0,53.0,29.72,ESE,117,14.0,26.0,99,0.02,,,1.82,42.000000,,2013-06-28 12:52:00,
2013-06-28 09:01:00,53.0,53.0,29.72,ESE,117,14.0,26.0,99,0.02,,,1.82,42.000000,,2013-06-28 13:01:00,
2013-06-28 09:11:00,53.0,53.0,29.71,SE,140,14.0,26.0,99,0.05,,,1.85,76.000000,,2013-06-28 13:11:00,
2013-06-28 09:23:00,53.0,53.0,29.71,SE,140,14.0,26.0,99,0.05,,,1.85,76.000000,,2013-06-28 13:23:00,
2013-06-28 09:33:00,53.0,53.0,29.69,SE,127,17.0,30.0,99,0.06,,,1.86,120.000000,,2013-06-28 13:33:00,
2013-06-28 10:02:00,53.0,53.0,29.69,ESE,123,13.0,23.0,99,0.04,,,1.86,46.000000,,2013-06-28 14:02:00,
2013-06-28 10:12:00,53.0,53.0,29.70,SE,131,9.0,21.0,99,0.01,,,1.86,33.000000,,2013-06-28 14:12:00,
2013-06-28 10:33:00,53.0,53.0,29.70,SE,126,11.0,19.0,99,0.02,,,1.88,76.000000,,2013-06-28 14:33:00,
2013-06-28 10:44:00,53.0,53.0,29.70,SE,146,13.0,17.0,99,0.04,,,1.90,77.000000,,2013-06-28 14:44:00,
2013-06-28 10:53:00,53.0,53.0,29.70,SE,146,13.0,17.0,99,0.04,,,1.90,77.000000,,2013-06-28 14:53:00,
2013-06-28 11:02:00,53.0,53.0,29.70,SE,146,13.0,17.0,99,0.04,,,1.90,77.000000,,2013-06-28 15:02:00,
2013-06-28 11:34:00,53.0,53.0,29.68,SSE,149,12.0,23.0,99,0.14,,,2.02,14.000000,,2013-06-28 15:34:00,
2013-06-28 11:43:00,53.0,53.0,29.66,SE,124,10.0,21.0,99,0.48,,,2.38,16.000000,,2013-06-28 15:43:00,
2013-06-28 11:52:00,53.0,53.0,29.66,SE,124,10.0,21.0,99,0.48,,,2.38,16.000000,,2013-06-28 15:52:00,
2013-06-28 12:02:00,53.0,53.0,29.66,SE,144,13.0,27.0,99,0.52,,,2.47,60.000000,,2013-06-28 16:02:00,
2013-06-28 12:11:00,53.0,53.0,29.65,SSE,159,14.0,22.0,99,0.53,,,2.49,54.000000,,2013-06-28 16:11:00,
2013-06-28 12:33:00,53.0,53.0,29.65,SSE,150,15.0,23.0,99,0.46,,,2.49,100.000000,,2013-06-28 16:33:00,
2013-06-28 12:44:00,54.0,54.0,29.65,SE,144,14.0,29.0,99,0.10,,,2.49,105.000000,,2013-06-28 16:44:00,
2013-06-28 12:53:00,54.0,54.0,29.65,SE,144,14.0,29.0,99,0.10,,,2.49,105.000000,,2013-06-28 16:53:00,
2013-06-28 13:02:00,55.0,55.0,29.64,ESE,123,11.0,21.0,99,0.02,,,2.49,151.000000,,2013-06-28 17:02:00,
2013-06-28 13:33:00,56.0,56.0,29.63,SSE,151,10.0,21.0,99,0.01,,,2.50,148.000000,,2013-06-28 17:33:00,
2013-06-28 13:52:00,56.0,56.0,29.62,SE,133,11.0,21.0,99,0.01,,,2.50,127.000000,,2013-06-28 17:52:00,
2013-06-28 14:02:00,56.0,56.0,29.61,SSE,160,13.0,22.0,99,0.01,,,2.50,153.000000,,2013-06-28 18:02:00,
2013-06-28 14:12:00,56.0,56.0,29.62,SSE,151,9.0,17.0,99,0.01,,,2.50,79.000000,,2013-06-28 18:12:00,
2013-06-28 14:33:00,57.0,57.0,29.62,SSE,160,11.0,19.0,99,0.00,,,2.50,76.000000,,2013-06-28 18:33:00,
2013-06-28 14:43:00,57.0,57.0,29.62,SSE,148,6.0,18.0,99,0.00,,,2.50,114.000000,,2013-06-28 18:43:00,
2013-06-28 14:52:00,57.0,57.0,29.62,SSE,148,6.0,18.0,99,0.00,,,2.50,114.000000,,2013-06-28 18:52:00,
2013-06-28 15:01:00,57.0,57.0,29.60,South,169,8.0,19.0,99,0.00,,,2.50,121.000000,,2013-06-28 19:01:00,
2013-06-28 15:11:00,59.0,59.0,29.60,South,173,4.0,13.0,100,0.00,,,2.50,69.000000,,2013-06-28 19:11:00,
2013-06-28 15:22:00,59.0,59.0,29.60,South,173,4.0,13.0,100,0.00,,,2.50,69.000000,,2013-06-28 19:22:00,
2013-06-28 15:33:00,60.0,60.0,29.59,SW,214,4.0,10.0,99,0.00,,,2.50,62.000000,,2013-06-28 19:33:00,
2013-06-28 15:43:00,63.0,63.0,29.59,South,169,4.0,13.0,99,0.00,,,2.50,69.000000,,2013-06-28 19:43:00,
2013-06-28 15:53:00,63.0,63.0,29.59,South,169,4.0,13.0,99,0.00,,,2.50,69.000000,,2013-06-28 19:53:00,
2013-06-28 16:02:00,62.0,62.0,29.59,SSW,192,5.0,16.0,99,0.00,,,2.50,49.000000,,2013-06-28 20:02:00,
2013-06-28 16:11:00,63.0,63.0,29.59,SSW,212,6.0,18.0,100,0.00,,,2.50,77.000000,,2013-06-28 20:11:00,
2013-06-28 16:33:00,63.0,63.0,29.59,WSW,246,8.0,18.0,100,0.00,,,2.50,62.000000,,2013-06-28 20:33:00,
2013-06-28 16:43:00,63.0,63.0,29.58,SSW,196,9.0,17.0,99,0.00,,,2.50,51.000000,,2013-06-28 20:43:00,
2013-06-28 16:52:00,63.0,63.0,29.58,SSW,196,9.0,17.0,99,0.00,,,2.50,51.000000,,2013-06-28 20:52:00,
2013-06-28 17:02:00,63.0,63.0,29.58,SSW,211,8.0,19.0,99,0.00,,,2.50,51.000000,,2013-06-28 21:02:00,
2013-06-28 17:11:00,63.0,63.0,29.58,SSW,211,8.0,19.0,99,0.00,,,2.50,51.000000,,2013-06-28 21:11:00,
2013-06-28 17:34:00,63.0,63.0,29.58,SSW,209,9.0,17.0,99,0.00,,,2.50,39.000000,,2013-06-28 21:34:00,
2013-06-28 17:43:00,63.0,63.0,29.57,SSE,165,10.0,19.0,99,0.00,,,2.50,53.000000,,2013-06-28 21:43:00,
2013-06-28 17:53:00,63.0,63.0,29.57,SSE,165,10.0,19.0,99,0.00,,,2.50,53.000000,,2013-06-28 21:53:00,
2013-06-28 18:01:00,63.0,63.0,29.57,SW,217,10.0,19.0,99,0.00,,,2.50,65.000000,,2013-06-28 22:01:00,
2013-06-28 18:43:00,63.0,63.0,29.57,SW,231,9.0,19.0,99,0.00,,,2.50,60.000000,,2013-06-28 22:43:00,
2013-06-28 18:52:00,63.0,63.0,29.57,SSW,200,11.0,20.0,99,0.00,,,2.50,33.000000,,2013-06-28 22:52:00,
2013-06-28 19:02:00,63.0,63.0,29.57,SSW,200,11.0,20.0,99,0.00,,,2.50,33.000000,,2013-06-28 23:02:00,
2013-06-28 19:11:00,63.0,63.0,29.57,SW,225,11.0,18.0,99,0.00,,,2.50,21.000000,,2013-06-28 23:11:00,
2013-06-28 19:23:00,63.0,63.0,29.57,SW,225,11.0,18.0,99,0.00,,,2.50,21.000000,,2013-06-28 23:23:00,
2013-06-28 19:43:00,63.0,63.0,29.58,SW,225,12.0,19.0,99,0.00,,,2.50,26.000000,,2013-06-28 23:43:00,
2013-06-28 19:53:00,63.0,63.0,29.58,SW,225,12.0,19.0,99,0.00,,,2.50,26.000000,,2013-06-28 23:53:00,
2013-06-28 20:02:00,63.0,63.0,29.58,SW,225,12.0,19.0,99,0.00,,,2.50,26.000000,,2013-06-29 00:02:00,
2013-06-28 20:12:00,62.0,62.0,29.58,SW,220,9.0,22.0,99,0.00,,,2.50,7.000000,,2013-06-29 00:12:00,
2013-06-28 20:23:00,62.0,62.0,29.58,SW,223,13.0,22.0,99,0.00,,,2.50,0.000000,,2013-06-29 00:23:00,
2013-06-28 20:33:00,62.0,62.0,29.58,SW,223,13.0,22.0,99,0.00,,,2.50,0.000000,,2013-06-29 00:33:00,
2013-06-28 20:42:00,62.0,62.0,29.58,SW,223,13.0,22.0,99,0.00,,,2.50,0.000000,,2013-06-29 00:42:00,
2013-06-28 20:52:00,62.0,62.0,29.58,SW,223,13.0,22.0,99,0.00,,,2.50,0.000000,,2013-06-29 00:52:00,
2013-06-28 21:01:00,62.0,62.0,29.58,SW,223,13.0,22.0,99,0.00,,,2.50,0.000000,,2013-06-29 01:01:00,
2013-06-28 21:11:00,62.0,62.0,29.59,SSW,198,12.0,25.0,99,0.00,,,2.50,0.000000,,2013-06-29 01:11:00,
2013-06-28 21:22:00,62.0,62.0,29.59,SSW,198,12.0,25.0,99,0.00,,,2.50,0.000000,,2013-06-29 01:22:00,
2013-06-28 21:32:00,62.0,62.0,29.59,SSW,198,12.0,25.0,99,0.00,,,2.50,0.000000,,2013-06-29 01:32:00,
2013-06-28 21:42:00,62.0,62.0,29.59,SSW,198,12.0,25.0,99,0.00,,,2.50,0.000000,,2013-06-29 01:42:00,
2013-06-28 21:51:00,62.0,62.0,29.59,SSW,198,12.0,25.0,99,0.00,,,2.50,0.000000,,2013-06-29 01:51:00,